<?xml version="1.0" encoding="UTF-8"?>
<gpx version="1.0" creator="Trackator" xmlns:xsi="http://www.w3.org/2001/XMLSchema-instance" xmlns="http://www.topografix.com/GPX/1/0" xmlns:topografix="http://www.topografix.com/GPX/Private/TopoGrafix/0/1" xsi:schemaLocation="http://www.topografix.com/GPX/1/0 http://www.topografix.com/GPX/1/0/gpx.xsd http://www.topografix.com/GPX/Private/TopoGrafix/0/1 http://www.topografix.com/GPX/Private/TopoGrafix/0/1/topografix.xsd">
<metadata>
<link href="http://www.trackalia.com/trackatorweb.php">
<text>Trackator</text>
</link>
</metadata>
<time>2017-08-05T09:20:22Z</time>
<trk>
<name>Track: </name>
<desc>Running</desc>
<trkseg>
<trkpt lat="53.3477329" lon="18.4359935">
<ele>75</ele>
<time>2017-08-05T09:20:22Z</time>
</trkpt>
<trkpt lat="53.3477329" lon="18.4359935">
<ele>75</ele>
<time>2017-08-05T09:20:24Z</time>
</trkpt>
<trkpt lat="53.3477329" lon="18.4359935">
<ele>75</ele>
<time>2017-08-05T09:20:26Z</time>
</trkpt>
<trkpt lat="53.3477329" lon="18.4359935">
<ele>75</ele>
<time>2017-08-05T09:20:28Z</time>
</trkpt>
<trkpt lat="53.3477329" lon="18.4359935">
<ele>75</ele>
<time>2017-08-05T09:20:30Z</time>
</trkpt>
<trkpt lat="53.3477502" lon="18.4359653">
<ele>76</ele>
<time>2017-08-05T09:20:32Z</time>
</trkpt>
<trkpt lat="53.3477626" lon="18.4359593">
<ele>76</ele>
<time>2017-08-05T09:20:34Z</time>
</trkpt>
<trkpt lat="53.3477992" lon="18.4359642">
<ele>76</ele>
<time>2017-08-05T09:20:36Z</time>
</trkpt>
<trkpt lat="53.3478362" lon="18.4359667">
<ele>77</ele>
<time>2017-08-05T09:20:38Z</time>
</trkpt>
<trkpt lat="53.3478671" lon="18.4359748">
<ele>77</ele>
<time>2017-08-05T09:20:40Z</time>
</trkpt>
<trkpt lat="53.3478953" lon="18.4359909">
<ele>77</ele>
<time>2017-08-05T09:20:42Z</time>
</trkpt>
<trkpt lat="53.3479197" lon="18.4359899">
<ele>78</ele>
<time>2017-08-05T09:20:44Z</time>
</trkpt>
<trkpt lat="53.3479404" lon="18.4359982">
<ele>78</ele>
<time>2017-08-05T09:20:46Z</time>
</trkpt>
<trkpt lat="53.3479545" lon="18.4360156">
<ele>78</ele>
<time>2017-08-05T09:20:48Z</time>
</trkpt>
<trkpt lat="53.3479761" lon="18.4360166">
<ele>79</ele>
<time>2017-08-05T09:20:50Z</time>
</trkpt>
<trkpt lat="53.3479970" lon="18.4360155">
<ele>80</ele>
<time>2017-08-05T09:20:52Z</time>
</trkpt>
<trkpt lat="53.3480365" lon="18.4360301">
<ele>80</ele>
<time>2017-08-05T09:20:54Z</time>
</trkpt>
<trkpt lat="53.3480771" lon="18.4360515">
<ele>81</ele>
<time>2017-08-05T09:20:56Z</time>
</trkpt>
<trkpt lat="53.3480977" lon="18.4360498">
<ele>82</ele>
<time>2017-08-05T09:20:58Z</time>
</trkpt>
<trkpt lat="53.3481161" lon="18.4360392">
<ele>82</ele>
<time>2017-08-05T09:21:00Z</time>
</trkpt>
<trkpt lat="53.3481482" lon="18.4360369">
<ele>83</ele>
<time>2017-08-05T09:21:02Z</time>
</trkpt>
<trkpt lat="53.3481482" lon="18.4360369">
<ele>83</ele>
<time>2017-08-05T09:21:04Z</time>
</trkpt>
<trkpt lat="53.3481482" lon="18.4360369">
<ele>83</ele>
<time>2017-08-05T09:21:06Z</time>
</trkpt>
<trkpt lat="53.3481722" lon="18.4360419">
<ele>84</ele>
<time>2017-08-05T09:21:08Z</time>
</trkpt>
<trkpt lat="53.3482103" lon="18.4360632">
<ele>85</ele>
<time>2017-08-05T09:21:10Z</time>
</trkpt>
<trkpt lat="53.3482401" lon="18.4360793">
<ele>86</ele>
<time>2017-08-05T09:21:12Z</time>
</trkpt>
<trkpt lat="53.3482742" lon="18.4361042">
<ele>87</ele>
<time>2017-08-05T09:21:14Z</time>
</trkpt>
<trkpt lat="53.3483277" lon="18.4361447">
<ele>85</ele>
<time>2017-08-05T09:21:16Z</time>
</trkpt>
<trkpt lat="53.3483762" lon="18.4361864">
<ele>84</ele>
<time>2017-08-05T09:21:18Z</time>
</trkpt>
<trkpt lat="53.3484142" lon="18.4362187">
<ele>84</ele>
<time>2017-08-05T09:21:20Z</time>
</trkpt>
<trkpt lat="53.3484505" lon="18.4362345">
<ele>84</ele>
<time>2017-08-05T09:21:22Z</time>
</trkpt>
<trkpt lat="53.3484823" lon="18.4362471">
<ele>84</ele>
<time>2017-08-05T09:21:24Z</time>
</trkpt>
<trkpt lat="53.3485052" lon="18.4362701">
<ele>84</ele>
<time>2017-08-05T09:21:26Z</time>
</trkpt>
<trkpt lat="53.3485362" lon="18.4362852">
<ele>84</ele>
<time>2017-08-05T09:21:28Z</time>
</trkpt>
<trkpt lat="53.3485677" lon="18.4362957">
<ele>85</ele>
<time>2017-08-05T09:21:30Z</time>
</trkpt>
<trkpt lat="53.3485965" lon="18.4362991">
<ele>86</ele>
<time>2017-08-05T09:21:32Z</time>
</trkpt>
<trkpt lat="53.3486122" lon="18.4363025">
<ele>87</ele>
<time>2017-08-05T09:21:34Z</time>
</trkpt>
<trkpt lat="53.3486385" lon="18.4363140">
<ele>86</ele>
<time>2017-08-05T09:21:36Z</time>
</trkpt>
<trkpt lat="53.3486609" lon="18.4363210">
<ele>86</ele>
<time>2017-08-05T09:21:38Z</time>
</trkpt>
<trkpt lat="53.3486781" lon="18.4363292">
<ele>86</ele>
<time>2017-08-05T09:21:40Z</time>
</trkpt>
<trkpt lat="53.3487057" lon="18.4363360">
<ele>87</ele>
<time>2017-08-05T09:21:42Z</time>
</trkpt>
<trkpt lat="53.3487381" lon="18.4363388">
<ele>88</ele>
<time>2017-08-05T09:21:44Z</time>
</trkpt>
<trkpt lat="53.3487711" lon="18.4363456">
<ele>88</ele>
<time>2017-08-05T09:21:46Z</time>
</trkpt>
<trkpt lat="53.3488055" lon="18.4363552">
<ele>89</ele>
<time>2017-08-05T09:21:48Z</time>
</trkpt>
<trkpt lat="53.3488409" lon="18.4363645">
<ele>90</ele>
<time>2017-08-05T09:21:50Z</time>
</trkpt>
<trkpt lat="53.3488731" lon="18.4363696">
<ele>90</ele>
<time>2017-08-05T09:21:52Z</time>
</trkpt>
<trkpt lat="53.3488959" lon="18.4363764">
<ele>91</ele>
<time>2017-08-05T09:21:54Z</time>
</trkpt>
<trkpt lat="53.3489255" lon="18.4363949">
<ele>91</ele>
<time>2017-08-05T09:21:56Z</time>
</trkpt>
<trkpt lat="53.3489613" lon="18.4364303">
<ele>91</ele>
<time>2017-08-05T09:21:58Z</time>
</trkpt>
<trkpt lat="53.3489983" lon="18.4364739">
<ele>90</ele>
<time>2017-08-05T09:22:00Z</time>
</trkpt>
<trkpt lat="53.3490270" lon="18.4365003">
<ele>89</ele>
<time>2017-08-05T09:22:02Z</time>
</trkpt>
<trkpt lat="53.3490567" lon="18.4365096">
<ele>90</ele>
<time>2017-08-05T09:22:04Z</time>
</trkpt>
<trkpt lat="53.3490877" lon="18.4365227">
<ele>90</ele>
<time>2017-08-05T09:22:06Z</time>
</trkpt>
<trkpt lat="53.3491185" lon="18.4365341">
<ele>91</ele>
<time>2017-08-05T09:22:08Z</time>
</trkpt>
<trkpt lat="53.3491440" lon="18.4365466">
<ele>92</ele>
<time>2017-08-05T09:22:10Z</time>
</trkpt>
<trkpt lat="53.3491685" lon="18.4365651">
<ele>93</ele>
<time>2017-08-05T09:22:12Z</time>
</trkpt>
<trkpt lat="53.3491940" lon="18.4365757">
<ele>94</ele>
<time>2017-08-05T09:22:14Z</time>
</trkpt>
<trkpt lat="53.3492214" lon="18.4365873">
<ele>94</ele>
<time>2017-08-05T09:22:16Z</time>
</trkpt>
<trkpt lat="53.3492478" lon="18.4366060">
<ele>94</ele>
<time>2017-08-05T09:22:18Z</time>
</trkpt>
<trkpt lat="53.3492638" lon="18.4366244">
<ele>94</ele>
<time>2017-08-05T09:22:20Z</time>
</trkpt>
<trkpt lat="53.3492972" lon="18.4366354">
<ele>93</ele>
<time>2017-08-05T09:22:22Z</time>
</trkpt>
<trkpt lat="53.3493320" lon="18.4366417">
<ele>93</ele>
<time>2017-08-05T09:22:24Z</time>
</trkpt>
<trkpt lat="53.3493673" lon="18.4366462">
<ele>93</ele>
<time>2017-08-05T09:22:26Z</time>
</trkpt>
<trkpt lat="53.3493925" lon="18.4366545">
<ele>93</ele>
<time>2017-08-05T09:22:28Z</time>
</trkpt>
<trkpt lat="53.3494118" lon="18.4366922">
<ele>92</ele>
<time>2017-08-05T09:22:30Z</time>
</trkpt>
<trkpt lat="53.3494173" lon="18.4367481">
<ele>91</ele>
<time>2017-08-05T09:22:32Z</time>
</trkpt>
<trkpt lat="53.3494009" lon="18.4368032">
<ele>91</ele>
<time>2017-08-05T09:22:34Z</time>
</trkpt>
<trkpt lat="53.3493797" lon="18.4368489">
<ele>91</ele>
<time>2017-08-05T09:22:36Z</time>
</trkpt>
<trkpt lat="53.3493691" lon="18.4368916">
<ele>92</ele>
<time>2017-08-05T09:22:38Z</time>
</trkpt>
<trkpt lat="53.3493598" lon="18.4369278">
<ele>92</ele>
<time>2017-08-05T09:22:40Z</time>
</trkpt>
<trkpt lat="53.3493517" lon="18.4369636">
<ele>92</ele>
<time>2017-08-05T09:22:42Z</time>
</trkpt>
<trkpt lat="53.3493419" lon="18.4370042">
<ele>92</ele>
<time>2017-08-05T09:22:44Z</time>
</trkpt>
<trkpt lat="53.3493344" lon="18.4370518">
<ele>91</ele>
<time>2017-08-05T09:22:46Z</time>
</trkpt>
<trkpt lat="53.3493314" lon="18.4371013">
<ele>91</ele>
<time>2017-08-05T09:22:48Z</time>
</trkpt>
<trkpt lat="53.3493243" lon="18.4371390">
<ele>91</ele>
<time>2017-08-05T09:22:50Z</time>
</trkpt>
<trkpt lat="53.3493095" lon="18.4371762">
<ele>90</ele>
<time>2017-08-05T09:22:52Z</time>
</trkpt>
<trkpt lat="53.3492897" lon="18.4372196">
<ele>89</ele>
<time>2017-08-05T09:22:54Z</time>
</trkpt>
<trkpt lat="53.3492773" lon="18.4372583">
<ele>89</ele>
<time>2017-08-05T09:22:56Z</time>
</trkpt>
<trkpt lat="53.3492684" lon="18.4373006">
<ele>89</ele>
<time>2017-08-05T09:22:58Z</time>
</trkpt>
<trkpt lat="53.3492685" lon="18.4373344">
<ele>89</ele>
<time>2017-08-05T09:23:00Z</time>
</trkpt>
<trkpt lat="53.3492711" lon="18.4373675">
<ele>89</ele>
<time>2017-08-05T09:23:02Z</time>
</trkpt>
<trkpt lat="53.3492594" lon="18.4374057">
<ele>87</ele>
<time>2017-08-05T09:23:04Z</time>
</trkpt>
<trkpt lat="53.3492487" lon="18.4374481">
<ele>87</ele>
<time>2017-08-05T09:23:06Z</time>
</trkpt>
<trkpt lat="53.3492360" lon="18.4374941">
<ele>87</ele>
<time>2017-08-05T09:23:08Z</time>
</trkpt>
<trkpt lat="53.3492210" lon="18.4375361">
<ele>87</ele>
<time>2017-08-05T09:23:10Z</time>
</trkpt>
<trkpt lat="53.3492077" lon="18.4375648">
<ele>87</ele>
<time>2017-08-05T09:23:12Z</time>
</trkpt>
<trkpt lat="53.3491908" lon="18.4375932">
<ele>87</ele>
<time>2017-08-05T09:23:14Z</time>
</trkpt>
<trkpt lat="53.3491735" lon="18.4376024">
<ele>86</ele>
<time>2017-08-05T09:23:16Z</time>
</trkpt>
<trkpt lat="53.3491616" lon="18.4376060">
<ele>86</ele>
<time>2017-08-05T09:23:18Z</time>
</trkpt>
<trkpt lat="53.3491615" lon="18.4376098">
<ele>87</ele>
<time>2017-08-05T09:23:20Z</time>
</trkpt>
<trkpt lat="53.3491615" lon="18.4376098">
<ele>87</ele>
<time>2017-08-05T09:23:22Z</time>
</trkpt>
<trkpt lat="53.3491615" lon="18.4376098">
<ele>87</ele>
<time>2017-08-05T09:23:24Z</time>
</trkpt>
<trkpt lat="53.3491595" lon="18.4376080">
<ele>87</ele>
<time>2017-08-05T09:23:26Z</time>
</trkpt>
<trkpt lat="53.3491595" lon="18.4376080">
<ele>87</ele>
<time>2017-08-05T09:23:28Z</time>
</trkpt>
<trkpt lat="53.3491595" lon="18.4376080">
<ele>87</ele>
<time>2017-08-05T09:23:30Z</time>
</trkpt>
<trkpt lat="53.3491557" lon="18.4376086">
<ele>87</ele>
<time>2017-08-05T09:23:32Z</time>
</trkpt>
<trkpt lat="53.3491557" lon="18.4376086">
<ele>87</ele>
<time>2017-08-05T09:23:34Z</time>
</trkpt>
<trkpt lat="53.3491557" lon="18.4376086">
<ele>87</ele>
<time>2017-08-05T09:23:36Z</time>
</trkpt>
<trkpt lat="53.3491557" lon="18.4376086">
<ele>87</ele>
<time>2017-08-05T09:23:38Z</time>
</trkpt>
<trkpt lat="53.3491608" lon="18.4376141">
<ele>87</ele>
<time>2017-08-05T09:23:40Z</time>
</trkpt>
<trkpt lat="53.3491806" lon="18.4376252">
<ele>87</ele>
<time>2017-08-05T09:23:42Z</time>
</trkpt>
<trkpt lat="53.3492036" lon="18.4376486">
<ele>87</ele>
<time>2017-08-05T09:23:44Z</time>
</trkpt>
<trkpt lat="53.3492400" lon="18.4376785">
<ele>87</ele>
<time>2017-08-05T09:23:46Z</time>
</trkpt>
<trkpt lat="53.3492741" lon="18.4376775">
<ele>87</ele>
<time>2017-08-05T09:23:48Z</time>
</trkpt>
<trkpt lat="53.3492993" lon="18.4376908">
<ele>87</ele>
<time>2017-08-05T09:23:50Z</time>
</trkpt>
<trkpt lat="53.3493016" lon="18.4376791">
<ele>87</ele>
<time>2017-08-05T09:23:52Z</time>
</trkpt>
<trkpt lat="53.3493016" lon="18.4376791">
<ele>87</ele>
<time>2017-08-05T09:23:54Z</time>
</trkpt>
<trkpt lat="53.3493016" lon="18.4376791">
<ele>87</ele>
<time>2017-08-05T09:23:56Z</time>
</trkpt>
<trkpt lat="53.3493016" lon="18.4376791">
<ele>87</ele>
<time>2017-08-05T09:23:58Z</time>
</trkpt>
<trkpt lat="53.3493016" lon="18.4376791">
<ele>87</ele>
<time>2017-08-05T09:24:00Z</time>
</trkpt>
<trkpt lat="53.3493016" lon="18.4376791">
<ele>87</ele>
<time>2017-08-05T09:24:02Z</time>
</trkpt>
<trkpt lat="53.3492820" lon="18.4376886">
<ele>87</ele>
<time>2017-08-05T09:24:04Z</time>
</trkpt>
<trkpt lat="53.3492217" lon="18.4377250">
<ele>87</ele>
<time>2017-08-05T09:24:06Z</time>
</trkpt>
<trkpt lat="53.3492099" lon="18.4377690">
<ele>87</ele>
<time>2017-08-05T09:24:08Z</time>
</trkpt>
<trkpt lat="53.3492080" lon="18.4377402">
<ele>87</ele>
<time>2017-08-05T09:24:10Z</time>
</trkpt>
<trkpt lat="53.3491962" lon="18.4377425">
<ele>87</ele>
<time>2017-08-05T09:24:12Z</time>
</trkpt>
<trkpt lat="53.3491997" lon="18.4377329">
<ele>87</ele>
<time>2017-08-05T09:24:14Z</time>
</trkpt>
<trkpt lat="53.3491901" lon="18.4377486">
<ele>87</ele>
<time>2017-08-05T09:24:16Z</time>
</trkpt>
<trkpt lat="53.3491874" lon="18.4377629">
<ele>87</ele>
<time>2017-08-05T09:24:18Z</time>
</trkpt>
<trkpt lat="53.3491746" lon="18.4377680">
<ele>87</ele>
<time>2017-08-05T09:24:20Z</time>
</trkpt>
<trkpt lat="53.3491684" lon="18.4377713">
<ele>87</ele>
<time>2017-08-05T09:24:22Z</time>
</trkpt>
<trkpt lat="53.3491719" lon="18.4377620">
<ele>88</ele>
<time>2017-08-05T09:24:24Z</time>
</trkpt>
<trkpt lat="53.3491661" lon="18.4377731">
<ele>88</ele>
<time>2017-08-05T09:24:26Z</time>
</trkpt>
<trkpt lat="53.3491655" lon="18.4377795">
<ele>88</ele>
<time>2017-08-05T09:24:28Z</time>
</trkpt>
<trkpt lat="53.3491683" lon="18.4377817">
<ele>88</ele>
<time>2017-08-05T09:24:30Z</time>
</trkpt>
<trkpt lat="53.3491747" lon="18.4377864">
<ele>88</ele>
<time>2017-08-05T09:24:32Z</time>
</trkpt>
<trkpt lat="53.3491671" lon="18.4377865">
<ele>88</ele>
<time>2017-08-05T09:24:34Z</time>
</trkpt>
<trkpt lat="53.3491733" lon="18.4377849">
<ele>88</ele>
<time>2017-08-05T09:24:36Z</time>
</trkpt>
<trkpt lat="53.3491836" lon="18.4377732">
<ele>88</ele>
<time>2017-08-05T09:24:38Z</time>
</trkpt>
<trkpt lat="53.3491912" lon="18.4377697">
<ele>88</ele>
<time>2017-08-05T09:24:40Z</time>
</trkpt>
<trkpt lat="53.3491912" lon="18.4377697">
<ele>88</ele>
<time>2017-08-05T09:24:42Z</time>
</trkpt>
<trkpt lat="53.3491912" lon="18.4377697">
<ele>88</ele>
<time>2017-08-05T09:24:44Z</time>
</trkpt>
<trkpt lat="53.3491912" lon="18.4377697">
<ele>88</ele>
<time>2017-08-05T09:24:46Z</time>
</trkpt>
<trkpt lat="53.3491912" lon="18.4377697">
<ele>88</ele>
<time>2017-08-05T09:24:48Z</time>
</trkpt>
<trkpt lat="53.3491912" lon="18.4377697">
<ele>88</ele>
<time>2017-08-05T09:24:50Z</time>
</trkpt>
<trkpt lat="53.3491912" lon="18.4377697">
<ele>88</ele>
<time>2017-08-05T09:24:52Z</time>
</trkpt>
<trkpt lat="53.3491912" lon="18.4377697">
<ele>88</ele>
<time>2017-08-05T09:24:54Z</time>
</trkpt>
<trkpt lat="53.3491912" lon="18.4377697">
<ele>88</ele>
<time>2017-08-05T09:24:56Z</time>
</trkpt>
<trkpt lat="53.3491912" lon="18.4377697">
<ele>88</ele>
<time>2017-08-05T09:24:58Z</time>
</trkpt>
<trkpt lat="53.3491912" lon="18.4377697">
<ele>88</ele>
<time>2017-08-05T09:25:00Z</time>
</trkpt>
<trkpt lat="53.3491912" lon="18.4377697">
<ele>88</ele>
<time>2017-08-05T09:25:02Z</time>
</trkpt>
<trkpt lat="53.3491912" lon="18.4377697">
<ele>88</ele>
<time>2017-08-05T09:25:04Z</time>
</trkpt>
<trkpt lat="53.3491912" lon="18.4377697">
<ele>88</ele>
<time>2017-08-05T09:25:06Z</time>
</trkpt>
<trkpt lat="53.3491912" lon="18.4377697">
<ele>88</ele>
<time>2017-08-05T09:25:08Z</time>
</trkpt>
<trkpt lat="53.3491912" lon="18.4377697">
<ele>88</ele>
<time>2017-08-05T09:25:10Z</time>
</trkpt>
<trkpt lat="53.3491912" lon="18.4377697">
<ele>88</ele>
<time>2017-08-05T09:25:12Z</time>
</trkpt>
<trkpt lat="53.3491912" lon="18.4377697">
<ele>88</ele>
<time>2017-08-05T09:25:14Z</time>
</trkpt>
<trkpt lat="53.3491912" lon="18.4377697">
<ele>88</ele>
<time>2017-08-05T09:25:16Z</time>
</trkpt>
<trkpt lat="53.3491912" lon="18.4377697">
<ele>88</ele>
<time>2017-08-05T09:25:18Z</time>
</trkpt>
<trkpt lat="53.3491912" lon="18.4377697">
<ele>88</ele>
<time>2017-08-05T09:25:20Z</time>
</trkpt>
<trkpt lat="53.3491912" lon="18.4377697">
<ele>88</ele>
<time>2017-08-05T09:25:22Z</time>
</trkpt>
<trkpt lat="53.3491912" lon="18.4377697">
<ele>88</ele>
<time>2017-08-05T09:25:24Z</time>
</trkpt>
<trkpt lat="53.3491912" lon="18.4377697">
<ele>88</ele>
<time>2017-08-05T09:25:26Z</time>
</trkpt>
<trkpt lat="53.3491912" lon="18.4377697">
<ele>88</ele>
<time>2017-08-05T09:25:28Z</time>
</trkpt>
<trkpt lat="53.3491912" lon="18.4377697">
<ele>88</ele>
<time>2017-08-05T09:25:30Z</time>
</trkpt>
<trkpt lat="53.3491975" lon="18.4373114">
<ele>73</ele>
<time>2017-08-05T09:28:23Z</time>
</trkpt>
<trkpt lat="53.3492425" lon="18.4373402">
<ele>80</ele>
<time>2017-08-05T09:28:25Z</time>
</trkpt>
<trkpt lat="53.3492706" lon="18.4373675">
<ele>88</ele>
<time>2017-08-05T09:28:27Z</time>
</trkpt>
<trkpt lat="53.3493015" lon="18.4373556">
<ele>95</ele>
<time>2017-08-05T09:28:29Z</time>
</trkpt>
<trkpt lat="53.3493150" lon="18.4373232">
<ele>99</ele>
<time>2017-08-05T09:28:31Z</time>
</trkpt>
<trkpt lat="53.3493059" lon="18.4372900">
<ele>99</ele>
<time>2017-08-05T09:28:33Z</time>
</trkpt>
<trkpt lat="53.3492754" lon="18.4373123">
<ele>86</ele>
<time>2017-08-05T09:28:35Z</time>
</trkpt>
<trkpt lat="53.3493125" lon="18.4372577">
<ele>97</ele>
<time>2017-08-05T09:28:37Z</time>
</trkpt>
<trkpt lat="53.3493300" lon="18.4372294">
<ele>98</ele>
<time>2017-08-05T09:28:39Z</time>
</trkpt>
<trkpt lat="53.3493358" lon="18.4372036">
<ele>99</ele>
<time>2017-08-05T09:28:41Z</time>
</trkpt>
<trkpt lat="53.3493480" lon="18.4371916">
<ele>100</ele>
<time>2017-08-05T09:28:43Z</time>
</trkpt>
<trkpt lat="53.3493658" lon="18.4371631">
<ele>99</ele>
<time>2017-08-05T09:28:45Z</time>
</trkpt>
<trkpt lat="53.3493845" lon="18.4371102">
<ele>97</ele>
<time>2017-08-05T09:28:47Z</time>
</trkpt>
<trkpt lat="53.3494037" lon="18.4370711">
<ele>98</ele>
<time>2017-08-05T09:28:49Z</time>
</trkpt>
<trkpt lat="53.3494330" lon="18.4370387">
<ele>99</ele>
<time>2017-08-05T09:28:51Z</time>
</trkpt>
<trkpt lat="53.3494442" lon="18.4369955">
<ele>101</ele>
<time>2017-08-05T09:28:53Z</time>
</trkpt>
<trkpt lat="53.3494371" lon="18.4369489">
<ele>101</ele>
<time>2017-08-05T09:28:55Z</time>
</trkpt>
<trkpt lat="53.3494570" lon="18.4369073">
<ele>103</ele>
<time>2017-08-05T09:28:57Z</time>
</trkpt>
<trkpt lat="53.3494877" lon="18.4368639">
<ele>107</ele>
<time>2017-08-05T09:28:59Z</time>
</trkpt>
<trkpt lat="53.3494952" lon="18.4368127">
<ele>109</ele>
<time>2017-08-05T09:29:01Z</time>
</trkpt>
<trkpt lat="53.3495077" lon="18.4367666">
<ele>111</ele>
<time>2017-08-05T09:29:03Z</time>
</trkpt>
<trkpt lat="53.3495225" lon="18.4367267">
<ele>111</ele>
<time>2017-08-05T09:29:05Z</time>
</trkpt>
<trkpt lat="53.3495438" lon="18.4366885">
<ele>112</ele>
<time>2017-08-05T09:29:07Z</time>
</trkpt>
<trkpt lat="53.3495336" lon="18.4366581">
<ele>111</ele>
<time>2017-08-05T09:29:09Z</time>
</trkpt>
<trkpt lat="53.3495009" lon="18.4366372">
<ele>112</ele>
<time>2017-08-05T09:29:11Z</time>
</trkpt>
<trkpt lat="53.3494756" lon="18.4366241">
<ele>112</ele>
<time>2017-08-05T09:29:13Z</time>
</trkpt>
<trkpt lat="53.3494654" lon="18.4366125">
<ele>113</ele>
<time>2017-08-05T09:29:15Z</time>
</trkpt>
<trkpt lat="53.3494654" lon="18.4366125">
<ele>113</ele>
<time>2017-08-05T09:29:17Z</time>
</trkpt>
<trkpt lat="53.3494565" lon="18.4366063">
<ele>113</ele>
<time>2017-08-05T09:29:19Z</time>
</trkpt>
<trkpt lat="53.3494325" lon="18.4365944">
<ele>112</ele>
<time>2017-08-05T09:29:21Z</time>
</trkpt>
<trkpt lat="53.3494057" lon="18.4365779">
<ele>112</ele>
<time>2017-08-05T09:29:23Z</time>
</trkpt>
<trkpt lat="53.3493759" lon="18.4365603">
<ele>112</ele>
<time>2017-08-05T09:29:25Z</time>
</trkpt>
<trkpt lat="53.3493491" lon="18.4365384">
<ele>112</ele>
<time>2017-08-05T09:29:27Z</time>
</trkpt>
<trkpt lat="53.3493260" lon="18.4365256">
<ele>112</ele>
<time>2017-08-05T09:29:29Z</time>
</trkpt>
<trkpt lat="53.3493069" lon="18.4365199">
<ele>111</ele>
<time>2017-08-05T09:29:31Z</time>
</trkpt>
<trkpt lat="53.3492858" lon="18.4365082">
<ele>111</ele>
<time>2017-08-05T09:29:33Z</time>
</trkpt>
<trkpt lat="53.3492565" lon="18.4364999">
<ele>111</ele>
<time>2017-08-05T09:29:35Z</time>
</trkpt>
<trkpt lat="53.3492285" lon="18.4364917">
<ele>110</ele>
<time>2017-08-05T09:29:37Z</time>
</trkpt>
<trkpt lat="53.3491909" lon="18.4364875">
<ele>109</ele>
<time>2017-08-05T09:29:39Z</time>
</trkpt>
<trkpt lat="53.3491857" lon="18.4364974">
<ele>109</ele>
<time>2017-08-05T09:29:41Z</time>
</trkpt>
<trkpt lat="53.3491513" lon="18.4364896">
<ele>110</ele>
<time>2017-08-05T09:29:43Z</time>
</trkpt>
<trkpt lat="53.3491303" lon="18.4364706">
<ele>109</ele>
<time>2017-08-05T09:29:45Z</time>
</trkpt>
<trkpt lat="53.3490978" lon="18.4364493">
<ele>108</ele>
<time>2017-08-05T09:29:47Z</time>
</trkpt>
<trkpt lat="53.3490696" lon="18.4364310">
<ele>107</ele>
<time>2017-08-05T09:29:49Z</time>
</trkpt>
<trkpt lat="53.3490542" lon="18.4364204">
<ele>106</ele>
<time>2017-08-05T09:29:51Z</time>
</trkpt>
<trkpt lat="53.3490367" lon="18.4364091">
<ele>106</ele>
<time>2017-08-05T09:29:53Z</time>
</trkpt>
<trkpt lat="53.3490265" lon="18.4363984">
<ele>106</ele>
<time>2017-08-05T09:29:55Z</time>
</trkpt>
<trkpt lat="53.3490104" lon="18.4363856">
<ele>107</ele>
<time>2017-08-05T09:29:57Z</time>
</trkpt>
<trkpt lat="53.3489914" lon="18.4363738">
<ele>107</ele>
<time>2017-08-05T09:29:59Z</time>
</trkpt>
<trkpt lat="53.3489687" lon="18.4363625">
<ele>107</ele>
<time>2017-08-05T09:30:01Z</time>
</trkpt>
<trkpt lat="53.3489376" lon="18.4363589">
<ele>106</ele>
<time>2017-08-05T09:30:03Z</time>
</trkpt>
<trkpt lat="53.3489121" lon="18.4363523">
<ele>106</ele>
<time>2017-08-05T09:30:05Z</time>
</trkpt>
<trkpt lat="53.3488542" lon="18.4363097">
<ele>106</ele>
<time>2017-08-05T09:30:09Z</time>
</trkpt>
<trkpt lat="53.3488375" lon="18.4363006">
<ele>106</ele>
<time>2017-08-05T09:30:11Z</time>
</trkpt>
<trkpt lat="53.3488154" lon="18.4363012">
<ele>105</ele>
<time>2017-08-05T09:30:13Z</time>
</trkpt>
<trkpt lat="" lon="">
<ele></ele>
<time>2017-08-05TZ</time>
</trkpt>
</trkseg>
</trk>
<wpt lat="" lon="">
	<name></name>
	<desc></desc>
	<cmt></cmt>
	<photoid></photoid>
	<type></type>
</wpt>
</gpx>
